Terminal Aerodrome Forecast
Issued by NWS Grand Forks, ND

Home | Current Version | Previous Version | Graphics & Text | Print | Product List | Glossary On
Versions: 1 2 3 4 5 6 7 8 9 10 11 12 13 14
000
FTUS43 KFGF 182320
TAFFAR
TAF
KFAR 182320Z 1900/1924 28013KT P6SM SCT250
     FM190200 26007KT P6SM FEW250
     FM191200 16007KT P6SM FEW250
     FM191600 18015KT P6SM FEW200=

USA.gov is the U.S. government's official web portal to all federal, state and local government web resources and services.